Takatsuki, Japan
Current Conditions -  °F | °C
As of 7:00 AM on Saturday 20 Dec 2014 (Local Time) from RJOO Reporting Station
Overcast Overcast  
Wind Chill: 36°   Ceiling: 8000
Heat Index: 43°   Visibility: 6mi
Dew Point: 30°   Wind: 14mph
Humidity: 61%   Direction: 70°ENE
Pressure: 30.12"   Gusts: NA
Location:  34.85°N, 135.62°E
Report Text: RJOO 192200Z 07012KT 9999 FEW030 BKN080 OVC100 06/M01 Q1020
Loading
Personal Weather Stations






























Interactive Weather Map New forecast layout! Learn more

10-Day Weather Forecast

Advertisements
Track Severe Weather on mobile